Airfield :
LOGIN :

Register | Disclaimer

   EN    FR    IT 

 










Legend :    VFR   Marginal VFR   IFR   Intensive IFR   Very Intensive IFR
Visi :
Ceiling :
>= 8 km
>= 3000ft
5 to 8 km
1000 to 3000 ft
1500m to 5 km
500 to 1000 ft
800 to 1500m
200 to 500 ft
< 800m
< 200 ft
Symbols :   Thunderstorms  Fog  Heavy snow  Heavy precipitations  Wind > 20 kt
SIGMETs :     Misc.  Thunderstorms  Icing  Turbulence  Mountain Waves  Volcanic Ashes






- Airport Elevation : 42 ft
- IATA code : KGD


UMKK - Khrabrava - Kaliningrad

CURRENT METAR :
  • 080930Z 22006MPS 9999 SCT008 BKN018 01/M00 Q1006 R24/690195 NOSIG RMK QFE753/1005

EXPIRED METARs :
  • 080900Z 22005MPS 9999 SCT006 BKN017 00/00 Q1006 R24/690195 NOSIG RMK QBB180 OBST OBSC QFE753/1004
  • 080830Z 22005MPS 9999 SCT007 BKN016CB 01/00 Q1005 R24/690195 NOSIG RMK QFE753/1004
  • 080800Z 23004MPS 9999 SCT007 BKN015CB 01/00 Q1005 R24/690191 NOSIG RMK QFE753/1004
  • 080730Z 24004MPS 210V270 9999 FEW006 BKN015CB 01/00 Q1005 R24/690191 NOSIG RMK QBB180 OBST OBSC QFE752/1003
  • 080700Z 21004MPS 9999 SCT004 BKN016CB 01/00 Q1004 R24/690295 NOSIG RMK QBB130 OBST OBSC QFE752/1003

TAF TAF UMKK
Valid from the 08 at 09:00 until the 09 at 09:00 UTC


080755Z 0809/0909 22005G10MPS 9999 FEW010 BKN016
TEMPO 0809/0815 1000 SHSN BKN003 BKN010CB
FM081500 16005G10MPS 2100 -SNRA BR BKN003 BKN011
TEMPO 0815/0824 VRB08MPS 0500 +SHSN BKN002 BKN010CB
BECMG 0901/0903 19003G08MPS 1000 BR
TEMPO 0903/0909 0300 FZFG VV002



MET'MAP, your aeronautical weather chart ! - Copyright ORBIFLY December 2007 - Disclaimer

ORBIFLY MET'MAP TEAM :

Programming & Development : Alexandra Zaïnal
Original concept : Baudouin d'Aumeries
Technical & hardware support : Manuel Goepfert
Assistance : Marc-Olivier Méhu




SOURCES & CREDITS :

   NOAA